Share

Holstein, IA (51025)

Holstein Ag Services, LLC (KIAHOLST2) Elev 1401 ft | 42.50 °N, 95.54 °W | Change Station

Current weather conditions updated 48 seconds ago

Scattered Clouds
Scattered Clouds
34.3 °F
Feels Like 27 °F
N
9.0
Wind Variable Wind from ESE
Gusts 14.0 mph
Sunrise 6:36 AM
Sunset 8:07 PM
Moon Waning Gibbous

Today is forecast to be Much Warmer than yesterday.

Pressure 30.28 in
Visibility 10.0 miles
Clouds Scattered Clouds 9000 ft
Windchill 27 °F
Dew Point 32 °F
Humidity 91%
Rainfall 0.00 in
Snow Depth Not available.
UV 0 out of 16
Pollen 8.40 out of 12
Air Quality Not available.
Flu Activity Sporadic
METAR KCKP 180655Z AUTO 10003KT 10SM SCT090 01/M02 A3028 RMK AO2 T00101016

More Conditions Fewer Conditions

Pressure 30.28 in
Visibility 10.0 miles
Clouds Scattered Clouds 9000 ft
Windchill 27 °F
Dew Point 32 °F
Humidity 91%
Rainfall 0.00 in
Snow Depth Not available.
UV 0 out of 16
Pollen 8.40 out of 12
Air Quality Not available.
Flu Activity Sporadic
METAR KCKP 180655Z AUTO 10003KT 10SM SCT090 01/M02 A3028 RMK AO2 T00101016

More Conditions Fewer Conditions

10-Day Forecast

Almanac

Astronomy

Apr. 18, 2014 Rise Set
Actual Time 6:36 AM CDT 8:07 PM CDT
Civil Twilight 6:06 AM CDT 8:37 PM CDT
Nautical Twilight 5:31 AM CDT 9:12 PM CDT
Astronomical Twilight 4:53 AM CDT 9:50 PM CDT
Moon 11:56 PM CDT 8:56 AM CDT
Length of Visible Light 14h 30m
Length of Day
13h 31m
Tomorrow will be 2m 42s longer.
Waning Gibbous, 90% of the Moon is Illuminated
Today
Waning Gibbous
Apr 22
Last Quarter
Apr 29
New
May 6
First Quarter
May 14
Full

Today's Extremes

State Highs State Lows

Community

  • SUNRISE THROUGH THE TREES.
    SUNRISE THROUGH THE TREES.
  • Dog Wood Blossoms
    Dog Wood Blossoms
  • Morning Light
    Morning Light
  • New Day
    New Day
  • Lake Michigan Sunrise
    Lake Michigan Sunrise

WunderPhotos

Upload Photos

1,702,279 photos uploaded!

WunderBlogs® & News

Nearby

Snow Depth

Station Depth Elevation
No new snow has been reported.

Coastal Water Temperatures

Place Temperature
No Stations Reporting

Earthquake Activity

City Distance Mag. Time & Date
No recent earthquake activity has been reported nearby.
Minimum magnitude displayed is 2.5.

Nearby Weather Stations

Station Location Temp. Windchill Dew Point Humidity Wind Precip. Elev Updated Type
Holstein Ag Services, LLC, Holstein, IA 34.3 °F 27 °F 32 °F 91% ESE  at  9.0 mph 0.00 in / hr 1401 ft 2:12 AM CDT Rapid Fire
Oxendales Arthur, IA, Arthur, IA 33.1 °F 24 °F 29 °F 86% East  at  13.0 mph 0.00 in / hr 1430 ft 2:13 AM CDT Normal
The Danbury Review, Danbury, IA 35.9 °F 36 °F 29 °F 75% ENE  at  0.0 mph 0.00 in / hr 1161 ft 2:10 AM CDT Normal
Ricklefs Home, Storm Lake, IA 33.4 °F 29 °F 30 °F 86% ESE  at  4.5 mph 0.00 in / hr 1414 ft 2:13 AM CDT Rapid Fire

Show More Stations Show Fewer Stations

What do you think?

We're not finished. Please let us know what you like, what you don't like, and what you are still missing.